sensor_id;sensor_type;location;lat;lon;timestamp;P1;durP1;ratioP1;P2;durP2;ratioP2
10343;SDS011;5217;43.960;10.954;2023-11-19T00:00:27;8.13;;;6.80;;
10343;SDS011;5217;43.960;10.954;2023-11-19T00:02:56;9.03;;;6.53;;
10343;SDS011;5217;43.960;10.954;2023-11-19T00:05:26;8.57;;;6.37;;
10343;SDS011;5217;43.960;10.954;2023-11-19T00:07:55;11.37;;;6.50;;
10343;SDS011;5217;43.960;10.954;2023-11-19T00:10:23;6.73;;;5.53;;
10343;SDS011;5217;43.960;10.954;2023-11-19T00:12:52;9.50;;;5.97;;
10343;SDS011;5217;43.960;10.954;2023-11-19T00:15:20;6.53;;;5.60;;
10343;SDS011;5217;43.960;10.954;2023-11-19T00:17:50;6.77;;;5.40;;
10343;SDS011;5217;43.960;10.954;2023-11-19T00:20:20;6.23;;;5.60;;
10343;SDS011;5217;43.960;10.954;2023-11-19T00:22:51;8.30;;;6.00;;
10343;SDS011;5217;43.960;10.954;2023-11-19T00:25:20;8.03;;;5.30;;
10343;SDS011;5217;43.960;10.954;2023-11-19T00:27:49;7.67;;;5.77;;
10343;SDS011;5217;43.960;10.954;2023-11-19T00:30:20;6.67;;;5.27;;
10343;SDS011;5217;43.960;10.954;2023-11-19T00:32:49;9.00;;;5.73;;
10343;SDS011;5217;43.960;10.954;2023-11-19T00:35:17;7.13;;;5.57;;
10343;SDS011;5217;43.960;10.954;2023-11-19T00:37:46;7.23;;;5.60;;
10343;SDS011;5217;43.960;10.954;2023-11-19T00:40:17;6.53;;;5.93;;
10343;SDS011;5217;43.960;10.954;2023-11-19T00:42:48;9.07;;;6.30;;
10343;SDS011;5217;43.960;10.954;2023-11-19T00:45:17;8.53;;;6.40;;
10343;SDS011;5217;43.960;10.954;2023-11-19T00:47:45;6.53;;;5.83;;
10343;SDS011;5217;43.960;10.954;2023-11-19T00:50:13;6.40;;;5.50;;
10343;SDS011;5217;43.960;10.954;2023-11-19T00:52:42;7.13;;;5.83;;
10343;SDS011;5217;43.960;10.954;2023-11-19T00:55:10;6.70;;;5.40;;
10343;SDS011;5217;43.960;10.954;2023-11-19T00:57:41;5.53;;;4.90;;
10343;SDS011;5217;43.960;10.954;2023-11-19T01:00:09;6.60;;;5.13;;
10343;SDS011;5217;43.960;10.954;2023-11-19T01:02:46;6.13;;;5.50;;
10343;SDS011;5217;43.960;10.954;2023-11-19T01:05:18;6.57;;;5.33;;
10343;SDS011;5217;43.960;10.954;2023-11-19T01:07:49;7.43;;;6.63;;
10343;SDS011;5217;43.960;10.954;2023-11-19T01:10:21;11.00;;;7.23;;
10343;SDS011;5217;43.960;10.954;2023-11-19T01:12:51;9.67;;;7.10;;
10343;SDS011;5217;43.960;10.954;2023-11-19T01:15:19;13.07;;;7.40;;
10343;SDS011;5217;43.960;10.954;2023-11-19T01:17:49;9.73;;;6.50;;
10343;SDS011;5217;43.960;10.954;2023-11-19T01:20:19;8.07;;;6.63;;
10343;SDS011;5217;43.960;10.954;2023-11-19T01:22:48;7.70;;;5.83;;
10343;SDS011;5217;43.960;10.954;2023-11-19T01:25:16;8.43;;;5.70;;
10343;SDS011;5217;43.960;10.954;2023-11-19T01:27:46;7.40;;;5.60;;
10343;SDS011;5217;43.960;10.954;2023-11-19T01:30:18;7.60;;;5.40;;
10343;SDS011;5217;43.960;10.954;2023-11-19T01:32:46;7.10;;;5.20;;
10343;SDS011;5217;43.960;10.954;2023-11-19T01:35:15;6.97;;;5.43;;
10343;SDS011;5217;43.960;10.954;2023-11-19T01:37:44;7.80;;;5.67;;
10343;SDS011;5217;43.960;10.954;2023-11-19T01:40:12;6.20;;;5.30;;
10343;SDS011;5217;43.960;10.954;2023-11-19T01:42:42;6.10;;;5.20;;
10343;SDS011;5217;43.960;10.954;2023-11-19T01:45:10;6.27;;;5.37;;
10343;SDS011;5217;43.960;10.954;2023-11-19T01:47:55;6.37;;;5.67;;
10343;SDS011;5217;43.960;10.954;2023-11-19T01:50:25;6.70;;;5.30;;
10343;SDS011;5217;43.960;10.954;2023-11-19T01:52:54;7.70;;;5.60;;
10343;SDS011;5217;43.960;10.954;2023-11-19T01:55:24;7.60;;;5.00;;
10343;SDS011;5217;43.960;10.954;2023-11-19T01:57:54;8.67;;;5.10;;
10343;SDS011;5217;43.960;10.954;2023-11-19T02:00:28;5.87;;;5.27;;
10343;SDS011;5217;43.960;10.954;2023-11-19T02:03:00;6.73;;;4.87;;
10343;SDS011;5217;43.960;10.954;2023-11-19T02:05:30;7.33;;;5.47;;
10343;SDS011;5217;43.960;10.954;2023-11-19T02:07:59;6.67;;;5.67;;
10343;SDS011;5217;43.960;10.954;2023-11-19T02:10:28;5.93;;;5.23;;
10343;SDS011;5217;43.960;10.954;2023-11-19T02:12:58;6.97;;;5.23;;
10343;SDS011;5217;43.960;10.954;2023-11-19T02:15:34;5.53;;;5.03;;
10343;SDS011;5217;43.960;10.954;2023-11-19T02:18:18;6.57;;;5.20;;
10343;SDS011;5217;43.960;10.954;2023-11-19T02:20:48;7.33;;;5.27;;
10343;SDS011;5217;43.960;10.954;2023-11-19T02:23:17;7.37;;;5.37;;
10343;SDS011;5217;43.960;10.954;2023-11-19T02:25:47;5.77;;;5.27;;
10343;SDS011;5217;43.960;10.954;2023-11-19T02:28:31;6.20;;;5.17;;
10343;SDS011;5217;43.960;10.954;2023-11-19T02:31:00;5.90;;;5.27;;
10343;SDS011;5217;43.960;10.954;2023-11-19T02:33:31;7.47;;;5.57;;
10343;SDS011;5217;43.960;10.954;2023-11-19T02:35:59;6.37;;;5.07;;
10343;SDS011;5217;43.960;10.954;2023-11-19T02:38:28;7.33;;;5.80;;
10343;SDS011;5217;43.960;10.954;2023-11-19T02:40:57;6.90;;;5.23;;
10343;SDS011;5217;43.960;10.954;2023-11-19T02:43:28;6.07;;;5.47;;
10343;SDS011;5217;43.960;10.954;2023-11-19T02:46:00;6.63;;;5.37;;
10343;SDS011;5217;43.960;10.954;2023-11-19T02:48:41;5.97;;;5.37;;
10343;SDS011;5217;43.960;10.954;2023-11-19T02:51:11;6.27;;;5.30;;
10343;SDS011;5217;43.960;10.954;2023-11-19T02:53:40;6.43;;;5.30;;
10343;SDS011;5217;43.960;10.954;2023-11-19T02:56:11;7.43;;;5.17;;
10343;SDS011;5217;43.960;10.954;2023-11-19T02:58:47;7.13;;;5.37;;
10343;SDS011;5217;43.960;10.954;2023-11-19T03:01:21;6.03;;;4.93;;
10343;SDS011;5217;43.960;10.954;2023-11-19T03:03:57;5.37;;;4.87;;
10343;SDS011;5217;43.960;10.954;2023-11-19T03:06:29;6.47;;;4.83;;
10343;SDS011;5217;43.960;10.954;2023-11-19T03:08:59;6.80;;;5.43;;
10343;SDS011;5217;43.960;10.954;2023-11-19T03:11:33;6.83;;;5.07;;
10343;SDS011;5217;43.960;10.954;2023-11-19T03:14:02;7.73;;;5.00;;
10343;SDS011;5217;43.960;10.954;2023-11-19T03:16:31;6.50;;;5.10;;
10343;SDS011;5217;43.960;10.954;2023-11-19T03:19:00;5.77;;;5.00;;
10343;SDS011;5217;43.960;10.954;2023-11-19T03:21:30;6.67;;;4.97;;
10343;SDS011;5217;43.960;10.954;2023-11-19T03:23:59;6.10;;;5.03;;
10343;SDS011;5217;43.960;10.954;2023-11-19T03:26:28;6.23;;;4.93;;
10343;SDS011;5217;43.960;10.954;2023-11-19T03:28:56;8.17;;;4.97;;
10343;SDS011;5217;43.960;10.954;2023-11-19T03:31:26;5.30;;;4.80;;
10343;SDS011;5217;43.960;10.954;2023-11-19T03:33:55;6.37;;;5.17;;
10343;SDS011;5217;43.960;10.954;2023-11-19T03:36:25;6.47;;;5.03;;
10343;SDS011;5217;43.960;10.954;2023-11-19T03:38:59;6.20;;;4.63;;
10343;SDS011;5217;43.960;10.954;2023-11-19T03:41:27;6.10;;;5.13;;
10343;SDS011;5217;43.960;10.954;2023-11-19T03:44:07;5.30;;;4.80;;
10343;SDS011;5217;43.960;10.954;2023-11-19T03:46:37;4.97;;;4.53;;
10343;SDS011;5217;43.960;10.954;2023-11-19T03:49:05;5.93;;;5.00;;
10343;SDS011;5217;43.960;10.954;2023-11-19T03:51:34;4.93;;;4.43;;
10343;SDS011;5217;43.960;10.954;2023-11-19T03:54:03;8.23;;;5.10;;
10343;SDS011;5217;43.960;10.954;2023-11-19T03:56:32;7.83;;;5.30;;
10343;SDS011;5217;43.960;10.954;2023-11-19T03:59:01;6.07;;;5.17;;
10343;SDS011;5217;43.960;10.954;2023-11-19T04:01:29;5.50;;;4.80;;
10343;SDS011;5217;43.960;10.954;2023-11-19T04:03:59;5.67;;;4.50;;
10343;SDS011;5217;43.960;10.954;2023-11-19T04:06:28;5.60;;;4.83;;
10343;SDS011;5217;43.960;10.954;2023-11-19T04:08:57;5.77;;;4.83;;
10343;SDS011;5217;43.960;10.954;2023-11-19T04:11:25;6.40;;;5.40;;
10343;SDS011;5217;43.960;10.954;2023-11-19T04:13:55;5.83;;;5.07;;
10343;SDS011;5217;43.960;10.954;2023-11-19T04:16:27;7.93;;;5.33;;
10343;SDS011;5217;43.960;10.954;2023-11-19T04:18:56;5.60;;;4.80;;
10343;SDS011;5217;43.960;10.954;2023-11-19T04:21:26;5.63;;;5.03;;
10343;SDS011;5217;43.960;10.954;2023-11-19T04:23:54;6.57;;;5.17;;
10343;SDS011;5217;43.960;10.954;2023-11-19T04:26:23;4.77;;;4.33;;
10343;SDS011;5217;43.960;10.954;2023-11-19T04:28:51;7.40;;;4.90;;
10343;SDS011;5217;43.960;10.954;2023-11-19T04:31:19;5.73;;;4.70;;
10343;SDS011;5217;43.960;10.954;2023-11-19T04:33:48;6.33;;;5.07;;
10343;SDS011;5217;43.960;10.954;2023-11-19T04:36:21;6.70;;;5.30;;
10343;SDS011;5217;43.960;10.954;2023-11-19T04:38:52;8.13;;;5.57;;
10343;SDS011;5217;43.960;10.954;2023-11-19T04:41:20;5.57;;;5.00;;
10343;SDS011;5217;43.960;10.954;2023-11-19T04:43:49;6.00;;;5.40;;
10343;SDS011;5217;43.960;10.954;2023-11-19T04:46:17;5.90;;;5.30;;
10343;SDS011;5217;43.960;10.954;2023-11-19T04:48:46;5.87;;;5.27;;
10343;SDS011;5217;43.960;10.954;2023-11-19T04:51:14;5.67;;;5.07;;
10343;SDS011;5217;43.960;10.954;2023-11-19T04:53:43;6.27;;;5.10;;
10343;SDS011;5217;43.960;10.954;2023-11-19T04:56:13;6.90;;;5.40;;
10343;SDS011;5217;43.960;10.954;2023-11-19T04:58:43;8.00;;;5.00;;
10343;SDS011;5217;43.960;10.954;2023-11-19T05:01:13;5.90;;;5.37;;
10343;SDS011;5217;43.960;10.954;2023-11-19T05:03:44;6.90;;;5.17;;
10343;SDS011;5217;43.960;10.954;2023-11-19T05:06:13;7.93;;;5.90;;
10343;SDS011;5217;43.960;10.954;2023-11-19T05:08:42;9.67;;;5.13;;
10343;SDS011;5217;43.960;10.954;2023-11-19T05:11:10;8.27;;;5.83;;
10343;SDS011;5217;43.960;10.954;2023-11-19T05:13:45;6.47;;;5.80;;
10343;SDS011;5217;43.960;10.954;2023-11-19T05:16:14;6.77;;;5.33;;
10343;SDS011;5217;43.960;10.954;2023-11-19T05:18:44;8.33;;;6.00;;
10343;SDS011;5217;43.960;10.954;2023-11-19T05:21:12;6.23;;;5.63;;
10343;SDS011;5217;43.960;10.954;2023-11-19T05:23:41;5.77;;;5.27;;
10343;SDS011;5217;43.960;10.954;2023-11-19T05:26:09;6.23;;;5.60;;
10343;SDS011;5217;43.960;10.954;2023-11-19T05:28:46;8.07;;;5.87;;
10343;SDS011;5217;43.960;10.954;2023-11-19T05:31:15;6.33;;;5.53;;
10343;SDS011;5217;43.960;10.954;2023-11-19T05:33:45;8.70;;;5.77;;
10343;SDS011;5217;43.960;10.954;2023-11-19T05:36:13;6.53;;;5.57;;
10343;SDS011;5217;43.960;10.954;2023-11-19T05:38:41;7.60;;;5.23;;
10343;SDS011;5217;43.960;10.954;2023-11-19T05:41:11;7.10;;;5.90;;
10343;SDS011;5217;43.960;10.954;2023-11-19T05:43:39;7.83;;;5.87;;
10343;SDS011;5217;43.960;10.954;2023-11-19T05:46:09;6.30;;;5.70;;
10343;SDS011;5217;43.960;10.954;2023-11-19T05:48:42;6.33;;;5.73;;
10343;SDS011;5217;43.960;10.954;2023-11-19T05:51:13;7.87;;;6.17;;
10343;SDS011;5217;43.960;10.954;2023-11-19T05:53:43;6.43;;;5.77;;
10343;SDS011;5217;43.960;10.954;2023-11-19T05:56:12;6.97;;;5.83;;
10343;SDS011;5217;43.960;10.954;2023-11-19T05:58:42;7.27;;;6.00;;
10343;SDS011;5217;43.960;10.954;2023-11-19T06:01:13;7.00;;;6.30;;
10343;SDS011;5217;43.960;10.954;2023-11-19T06:03:41;7.07;;;5.87;;
10343;SDS011;5217;43.960;10.954;2023-11-19T06:06:14;7.60;;;5.83;;
10343;SDS011;5217;43.960;10.954;2023-11-19T06:08:42;6.50;;;5.83;;
10343;SDS011;5217;43.960;10.954;2023-11-19T06:11:11;8.83;;;6.00;;
10343;SDS011;5217;43.960;10.954;2023-11-19T06:13:44;6.07;;;5.47;;
10343;SDS011;5217;43.960;10.954;2023-11-19T06:16:15;8.57;;;6.20;;
10343;SDS011;5217;43.960;10.954;2023-11-19T06:18:43;6.30;;;5.57;;
10343;SDS011;5217;43.960;10.954;2023-11-19T06:21:12;6.23;;;5.40;;
10343;SDS011;5217;43.960;10.954;2023-11-19T06:23:41;6.03;;;5.47;;
10343;SDS011;5217;43.960;10.954;2023-11-19T06:26:09;5.93;;;5.37;;
10343;SDS011;5217;43.960;10.954;2023-11-19T06:28:38;7.43;;;6.00;;
10343;SDS011;5217;43.960;10.954;2023-11-19T06:31:06;6.47;;;5.33;;
10343;SDS011;5217;43.960;10.954;2023-11-19T06:33:36;6.40;;;5.80;;
10343;SDS011;5217;43.960;10.954;2023-11-19T06:36:05;7.60;;;5.77;;
10343;SDS011;5217;43.960;10.954;2023-11-19T06:38:35;6.77;;;6.17;;
10343;SDS011;5217;43.960;10.954;2023-11-19T06:41:06;7.53;;;6.83;;
10343;SDS011;5217;43.960;10.954;2023-11-19T06:43:36;7.90;;;7.10;;
10343;SDS011;5217;43.960;10.954;2023-11-19T06:46:14;7.37;;;6.67;;
10343;SDS011;5217;43.960;10.954;2023-11-19T06:48:44;7.47;;;6.77;;
10343;SDS011;5217;43.960;10.954;2023-11-19T06:51:13;7.90;;;7.10;;
10343;SDS011;5217;43.960;10.954;2023-11-19T06:53:42;7.90;;;7.13;;
10343;SDS011;5217;43.960;10.954;2023-11-19T06:56:17;12.63;;;9.97;;
10343;SDS011;5217;43.960;10.954;2023-11-19T06:58:47;11.23;;;9.13;;
10343;SDS011;5217;43.960;10.954;2023-11-19T07:01:16;11.80;;;9.93;;
10343;SDS011;5217;43.960;10.954;2023-11-19T07:03:47;11.37;;;9.40;;
10343;SDS011;5217;43.960;10.954;2023-11-19T07:06:16;11.00;;;8.80;;
10343;SDS011;5217;43.960;10.954;2023-11-19T07:08:44;8.57;;;7.63;;
10343;SDS011;5217;43.960;10.954;2023-11-19T07:11:13;8.80;;;7.47;;
10343;SDS011;5217;43.960;10.954;2023-11-19T07:13:43;8.53;;;7.67;;
10343;SDS011;5217;43.960;10.954;2023-11-19T07:16:13;8.60;;;7.13;;
10343;SDS011;5217;43.960;10.954;2023-11-19T07:18:42;8.03;;;6.87;;
10343;SDS011;5217;43.960;10.954;2023-11-19T07:21:12;8.70;;;7.80;;
10343;SDS011;5217;43.960;10.954;2023-11-19T07:23:41;8.53;;;7.57;;
10343;SDS011;5217;43.960;10.954;2023-11-19T07:26:09;8.60;;;7.40;;
10343;SDS011;5217;43.960;10.954;2023-11-19T07:28:38;8.43;;;7.50;;
10343;SDS011;5217;43.960;10.954;2023-11-19T07:31:07;11.27;;;7.73;;
10343;SDS011;5217;43.960;10.954;2023-11-19T07:33:35;9.63;;;7.30;;
10343;SDS011;5217;43.960;10.954;2023-11-19T07:36:04;9.00;;;7.77;;
10343;SDS011;5217;43.960;10.954;2023-11-19T07:38:35;10.40;;;8.53;;
10343;SDS011;5217;43.960;10.954;2023-11-19T07:41:04;9.90;;;8.90;;
10343;SDS011;5217;43.960;10.954;2023-11-19T07:43:33;9.80;;;8.80;;
10343;SDS011;5217;43.960;10.954;2023-11-19T07:46:02;9.33;;;8.37;;
10343;SDS011;5217;43.960;10.954;2023-11-19T07:48:30;9.87;;;8.07;;
10343;SDS011;5217;43.960;10.954;2023-11-19T07:50:59;8.50;;;7.43;;
10343;SDS011;5217;43.960;10.954;2023-11-19T07:53:27;8.87;;;7.93;;
10343;SDS011;5217;43.960;10.954;2023-11-19T07:55:57;9.40;;;8.47;;
10343;SDS011;5217;43.960;10.954;2023-11-19T07:58:26;10.07;;;8.83;;
10343;SDS011;5217;43.960;10.954;2023-11-19T08:00:55;11.37;;;9.00;;
10343;SDS011;5217;43.960;10.954;2023-11-19T08:03:23;11.60;;;9.77;;
10343;SDS011;5217;43.960;10.954;2023-11-19T08:05:55;11.17;;;9.27;;
10343;SDS011;5217;43.960;10.954;2023-11-19T08:08:24;10.67;;;8.60;;
10343;SDS011;5217;43.960;10.954;2023-11-19T08:10:53;10.83;;;9.00;;
10343;SDS011;5217;43.960;10.954;2023-11-19T08:13:24;10.93;;;9.90;;
10343;SDS011;5217;43.960;10.954;2023-11-19T08:15:53;11.60;;;10.40;;
10343;SDS011;5217;43.960;10.954;2023-11-19T08:18:21;13.63;;;12.23;;
10343;SDS011;5217;43.960;10.954;2023-11-19T08:20:50;14.83;;;13.30;;
10343;SDS011;5217;43.960;10.954;2023-11-19T08:23:19;16.83;;;15.13;;
10343;SDS011;5217;43.960;10.954;2023-11-19T08:25:50;17.87;;;15.97;;
10343;SDS011;5217;43.960;10.954;2023-11-19T08:28:18;15.40;;;13.83;;
10343;SDS011;5217;43.960;10.954;2023-11-19T08:30:48;16.23;;;13.90;;
10343;SDS011;5217;43.960;10.954;2023-11-19T08:33:17;14.33;;;12.53;;
10343;SDS011;5217;43.960;10.954;2023-11-19T08:35:45;13.57;;;12.10;;
10343;SDS011;5217;43.960;10.954;2023-11-19T08:38:14;14.80;;;13.30;;
10343;SDS011;5217;43.960;10.954;2023-11-19T08:40:57;12.73;;;11.40;;
10343;SDS011;5217;43.960;10.954;2023-11-19T08:43:26;13.40;;;12.10;;
10343;SDS011;5217;43.960;10.954;2023-11-19T08:45:57;14.37;;;11.60;;
10343;SDS011;5217;43.960;10.954;2023-11-19T08:48:25;14.73;;;13.10;;
10343;SDS011;5217;43.960;10.954;2023-11-19T08:50:54;14.73;;;13.27;;
10343;SDS011;5217;43.960;10.954;2023-11-19T08:53:23;15.07;;;13.13;;
10343;SDS011;5217;43.960;10.954;2023-11-19T08:55:51;15.90;;;13.33;;
10343;SDS011;5217;43.960;10.954;2023-11-19T08:58:19;15.17;;;13.60;;
10343;SDS011;5217;43.960;10.954;2023-11-19T09:00:48;16.90;;;14.70;;
10343;SDS011;5217;43.960;10.954;2023-11-19T09:03:18;16.90;;;14.77;;
10343;SDS011;5217;43.960;10.954;2023-11-19T09:05:47;17.40;;;14.87;;
10343;SDS011;5217;43.960;10.954;2023-11-19T09:08:15;19.83;;;15.30;;
10343;SDS011;5217;43.960;10.954;2023-11-19T09:10:44;18.20;;;16.30;;
10343;SDS011;5217;43.960;10.954;2023-11-19T09:13:14;16.33;;;14.63;;
10343;SDS011;5217;43.960;10.954;2023-11-19T09:15:42;15.10;;;13.50;;
10343;SDS011;5217;43.960;10.954;2023-11-19T09:18:11;15.37;;;13.53;;
10343;SDS011;5217;43.960;10.954;2023-11-19T09:20:41;15.40;;;13.57;;
10343;SDS011;5217;43.960;10.954;2023-11-19T09:23:09;14.50;;;13.00;;
10343;SDS011;5217;43.960;10.954;2023-11-19T09:25:38;17.30;;;15.43;;
10343;SDS011;5217;43.960;10.954;2023-11-19T09:28:10;17.67;;;15.73;;
10343;SDS011;5217;43.960;10.954;2023-11-19T09:30:39;15.83;;;14.23;;
10343;SDS011;5217;43.960;10.954;2023-11-19T09:33:07;15.67;;;12.87;;
10343;SDS011;5217;43.960;10.954;2023-11-19T09:35:36;15.23;;;13.27;;
10343;SDS011;5217;43.960;10.954;2023-11-19T09:38:06;15.00;;;13.10;;
10343;SDS011;5217;43.960;10.954;2023-11-19T09:40:35;15.13;;;12.87;;
10343;SDS011;5217;43.960;10.954;2023-11-19T09:43:05;14.87;;;13.00;;
10343;SDS011;5217;43.960;10.954;2023-11-19T09:45:38;14.83;;;12.10;;
10343;SDS011;5217;43.960;10.954;2023-11-19T09:48:16;14.17;;;12.77;;
10343;SDS011;5217;43.960;10.954;2023-11-19T09:50:46;14.43;;;13.03;;
10343;SDS011;5217;43.960;10.954;2023-11-19T09:53:17;14.37;;;12.97;;
10343;SDS011;5217;43.960;10.954;2023-11-19T09:55:47;15.37;;;13.77;;
10343;SDS011;5217;43.960;10.954;2023-11-19T09:58:15;14.20;;;12.70;;
10343;SDS011;5217;43.960;10.954;2023-11-19T10:00:44;15.57;;;14.07;;
10343;SDS011;5217;43.960;10.954;2023-11-19T10:03:34;15.30;;;13.73;;
10343;SDS011;5217;43.960;10.954;2023-11-19T10:06:04;14.90;;;13.37;;
10343;SDS011;5217;43.960;10.954;2023-11-19T10:08:37;14.83;;;12.67;;
10343;SDS011;5217;43.960;10.954;2023-11-19T10:11:07;15.13;;;13.53;;
10343;SDS011;5217;43.960;10.954;2023-11-19T10:13:41;16.47;;;13.30;;
10343;SDS011;5217;43.960;10.954;2023-11-19T10:16:12;16.40;;;14.73;;
10343;SDS011;5217;43.960;10.954;2023-11-19T10:18:42;17.27;;;15.47;;
10343;SDS011;5217;43.960;10.954;2023-11-19T10:21:13;16.70;;;15.00;;
10343;SDS011;5217;43.960;10.954;2023-11-19T10:23:51;16.63;;;14.93;;
10343;SDS011;5217;43.960;10.954;2023-11-19T10:26:21;15.57;;;13.97;;
10343;SDS011;5217;43.960;10.954;2023-11-19T10:28:50;16.10;;;14.00;;
10343;SDS011;5217;43.960;10.954;2023-11-19T10:31:19;15.33;;;13.83;;
10343;SDS011;5217;43.960;10.954;2023-11-19T10:33:52;15.83;;;14.03;;
10343;SDS011;5217;43.960;10.954;2023-11-19T10:36:20;15.30;;;13.73;;
10343;SDS011;5217;43.960;10.954;2023-11-19T10:38:55;18.10;;;15.80;;
10343;SDS011;5217;43.960;10.954;2023-11-19T10:41:28;16.90;;;15.20;;
10343;SDS011;5217;43.960;10.954;2023-11-19T10:43:57;17.20;;;15.47;;
10343;SDS011;5217;43.960;10.954;2023-11-19T10:46:36;16.70;;;14.33;;
10343;SDS011;5217;43.960;10.954;2023-11-19T10:49:07;16.37;;;14.77;;
10343;SDS011;5217;43.960;10.954;2023-11-19T10:51:37;15.93;;;14.33;;
10343;SDS011;5217;43.960;10.954;2023-11-19T10:54:13;18.67;;;15.30;;
10343;SDS011;5217;43.960;10.954;2023-11-19T10:56:47;16.70;;;15.10;;
10343;SDS011;5217;43.960;10.954;2023-11-19T10:59:22;18.63;;;16.83;;
10343;SDS011;5217;43.960;10.954;2023-11-19T11:01:58;20.30;;;18.30;;
10343;SDS011;5217;43.960;10.954;2023-11-19T11:04:32;45.60;;;40.77;;
10343;SDS011;5217;43.960;10.954;2023-11-19T11:07:05;40.27;;;36.17;;
10343;SDS011;5217;43.960;10.954;2023-11-19T11:09:36;29.13;;;26.13;;
10343;SDS011;5217;43.960;10.954;2023-11-19T11:12:05;23.77;;;21.27;;
10343;SDS011;5217;43.960;10.954;2023-11-19T11:14:34;20.77;;;18.67;;
10343;SDS011;5217;43.960;10.954;2023-11-19T11:17:07;20.20;;;17.63;;
10343;SDS011;5217;43.960;10.954;2023-11-19T11:19:39;19.47;;;17.33;;
10343;SDS011;5217;43.960;10.954;2023-11-19T11:22:10;20.77;;;18.73;;
10343;SDS011;5217;43.960;10.954;2023-11-19T11:24:57;21.93;;;19.73;;
10343;SDS011;5217;43.960;10.954;2023-11-19T11:27:51;19.53;;;17.40;;
10343;SDS011;5217;43.960;10.954;2023-11-19T11:30:35;19.90;;;17.73;;
10343;SDS011;5217;43.960;10.954;2023-11-19T11:33:19;18.53;;;16.73;;
10343;SDS011;5217;43.960;10.954;2023-11-19T11:36:06;18.90;;;17.00;;
10343;SDS011;5217;43.960;10.954;2023-11-19T11:38:43;20.27;;;17.20;;
10343;SDS011;5217;43.960;10.954;2023-11-19T11:41:17;18.60;;;16.80;;
10343;SDS011;5217;43.960;10.954;2023-11-19T11:43:47;20.43;;;17.87;;
10343;SDS011;5217;43.960;10.954;2023-11-19T11:49:26;20.17;;;18.17;;
10343;SDS011;5217;43.960;10.954;2023-11-19T11:52:02;25.63;;;21.93;;
10343;SDS011;5217;43.960;10.954;2023-11-19T11:54:31;28.83;;;25.73;;
10343;SDS011;5217;43.960;10.954;2023-11-19T11:57:09;38.10;;;32.20;;
10343;SDS011;5217;43.960;10.954;2023-11-19T11:59:47;37.17;;;31.63;;
10343;SDS011;5217;43.960;10.954;2023-11-19T12:02:17;35.70;;;29.93;;
10343;SDS011;5217;43.960;10.954;2023-11-19T12:04:48;31.30;;;25.53;;
10343;SDS011;5217;43.960;10.954;2023-11-19T12:07:19;35.07;;;27.83;;
10343;SDS011;5217;43.960;10.954;2023-11-19T12:09:51;51.37;;;45.33;;
10343;SDS011;5217;43.960;10.954;2023-11-19T12:12:26;62.13;;;51.13;;
10343;SDS011;5217;43.960;10.954;2023-11-19T12:14:59;56.33;;;48.77;;
10343;SDS011;5217;43.960;10.954;2023-11-19T12:17:43;44.97;;;39.40;;
10343;SDS011;5217;43.960;10.954;2023-11-19T12:20:18;39.27;;;35.07;;
10343;SDS011;5217;43.960;10.954;2023-11-19T12:22:51;34.77;;;31.03;;
10343;SDS011;5217;43.960;10.954;2023-11-19T12:25:21;29.13;;;25.93;;
10343;SDS011;5217;43.960;10.954;2023-11-19T12:27:52;26.53;;;23.83;;
10343;SDS011;5217;43.960;10.954;2023-11-19T12:30:21;29.27;;;23.97;;
10343;SDS011;5217;43.960;10.954;2023-11-19T12:32:52;26.17;;;23.33;;
10343;SDS011;5217;43.960;10.954;2023-11-19T12:35:21;24.50;;;21.90;;
10343;SDS011;5217;43.960;10.954;2023-11-19T12:37:51;26.60;;;22.37;;
10343;SDS011;5217;43.960;10.954;2023-11-19T12:40:21;22.27;;;19.97;;
10343;SDS011;5217;43.960;10.954;2023-11-19T12:42:52;22.77;;;20.37;;
10343;SDS011;5217;43.960;10.954;2023-11-19T12:45:22;23.47;;;21.07;;
10343;SDS011;5217;43.960;10.954;2023-11-19T12:48:04;24.03;;;21.47;;
10343;SDS011;5217;43.960;10.954;2023-11-19T12:53:20;26.37;;;23.57;;
10343;SDS011;5217;43.960;10.954;2023-11-19T12:55:48;26.30;;;23.50;;
10343;SDS011;5217;43.960;10.954;2023-11-19T12:58:31;26.73;;;23.73;;
10343;SDS011;5217;43.960;10.954;2023-11-19T13:01:01;26.10;;;23.43;;
10343;SDS011;5217;43.960;10.954;2023-11-19T13:03:32;24.40;;;21.90;;
10343;SDS011;5217;43.960;10.954;2023-11-19T13:06:01;22.53;;;20.13;;
10343;SDS011;5217;43.960;10.954;2023-11-19T13:08:40;22.23;;;20.03;;
10343;SDS011;5217;43.960;10.954;2023-11-19T13:11:10;23.80;;;21.50;;
10343;SDS011;5217;43.960;10.954;2023-11-19T13:13:56;24.47;;;21.97;;
10343;SDS011;5217;43.960;10.954;2023-11-19T13:16:26;25.20;;;22.53;;
10343;SDS011;5217;43.960;10.954;2023-11-19T13:18:56;24.97;;;22.43;;
10343;SDS011;5217;43.960;10.954;2023-11-19T13:21:25;25.20;;;22.53;;
10343;SDS011;5217;43.960;10.954;2023-11-19T13:23:54;25.23;;;22.70;;
10343;SDS011;5217;43.960;10.954;2023-11-19T13:26:23;25.87;;;23.17;;
10343;SDS011;5217;43.960;10.954;2023-11-19T13:28:51;28.00;;;25.03;;
10343;SDS011;5217;43.960;10.954;2023-11-19T13:31:21;34.20;;;30.63;;
10343;SDS011;5217;43.960;10.954;2023-11-19T13:33:50;41.90;;;37.60;;
10343;SDS011;5217;43.960;10.954;2023-11-19T13:36:19;36.03;;;32.37;;
10343;SDS011;5217;43.960;10.954;2023-11-19T13:38:48;33.43;;;29.93;;
10343;SDS011;5217;43.960;10.954;2023-11-19T13:41:17;31.00;;;27.70;;
10343;SDS011;5217;43.960;10.954;2023-11-19T13:43:46;32.73;;;27.43;;
10343;SDS011;5217;43.960;10.954;2023-11-19T13:46:15;30.17;;;27.03;;
10343;SDS011;5217;43.960;10.954;2023-11-19T13:48:44;31.00;;;27.70;;
10343;SDS011;5217;43.960;10.954;2023-11-19T13:51:13;27.70;;;24.77;;
10343;SDS011;5217;43.960;10.954;2023-11-19T13:53:41;26.13;;;23.50;;
10343;SDS011;5217;43.960;10.954;2023-11-19T13:56:13;26.80;;;24.03;;
10343;SDS011;5217;43.960;10.954;2023-11-19T13:58:42;29.63;;;26.53;;
10343;SDS011;5217;43.960;10.954;2023-11-19T14:01:10;29.37;;;26.47;;
10343;SDS011;5217;43.960;10.954;2023-11-19T14:03:39;28.83;;;25.93;;
10343;SDS011;5217;43.960;10.954;2023-11-19T14:06:11;28.00;;;25.00;;
10343;SDS011;5217;43.960;10.954;2023-11-19T14:08:39;26.50;;;23.73;;
10343;SDS011;5217;43.960;10.954;2023-11-19T14:11:08;24.80;;;22.23;;
10343;SDS011;5217;43.960;10.954;2023-11-19T14:13:37;25.80;;;23.20;;
10343;SDS011;5217;43.960;10.954;2023-11-19T14:16:05;27.07;;;24.23;;
10343;SDS011;5217;43.960;10.954;2023-11-19T14:18:35;27.87;;;25.03;;
10343;SDS011;5217;43.960;10.954;2023-11-19T14:21:05;27.70;;;24.80;;
10343;SDS011;5217;43.960;10.954;2023-11-19T14:23:35;27.40;;;24.57;;
10343;SDS011;5217;43.960;10.954;2023-11-19T14:26:03;25.50;;;22.80;;
10343;SDS011;5217;43.960;10.954;2023-11-19T14:28:32;25.50;;;22.90;;
10343;SDS011;5217;43.960;10.954;2023-11-19T14:31:00;24.90;;;22.40;;
10343;SDS011;5217;43.960;10.954;2023-11-19T14:33:29;25.63;;;23.03;;
10343;SDS011;5217;43.960;10.954;2023-11-19T14:35:59;25.00;;;22.40;;
10343;SDS011;5217;43.960;10.954;2023-11-19T14:38:27;27.33;;;24.47;;
10343;SDS011;5217;43.960;10.954;2023-11-19T14:40:57;28.67;;;25.67;;
10343;SDS011;5217;43.960;10.954;2023-11-19T14:43:26;28.53;;;25.53;;
10343;SDS011;5217;43.960;10.954;2023-11-19T14:45:54;27.20;;;24.17;;
10343;SDS011;5217;43.960;10.954;2023-11-19T14:48:23;25.17;;;22.67;;
10343;SDS011;5217;43.960;10.954;2023-11-19T14:50:51;25.43;;;22.73;;
10343;SDS011;5217;43.960;10.954;2023-11-19T14:53:20;25.77;;;23.17;;
10343;SDS011;5217;43.960;10.954;2023-11-19T14:55:49;25.63;;;22.90;;
10343;SDS011;5217;43.960;10.954;2023-11-19T14:58:19;26.00;;;22.90;;
10343;SDS011;5217;43.960;10.954;2023-11-19T15:00:47;26.70;;;23.80;;